createdAt,value
2018-04-15T00:01:35.389Z,4.63
2018-04-15T00:04:03.713Z,4.50
2018-04-15T00:06:31.255Z,4.70
2018-04-15T00:08:58.765Z,4.63
2018-04-15T00:11:26.290Z,4.27
2018-04-15T00:13:53.789Z,4.30
2018-04-15T00:16:21.312Z,4.70
2018-04-15T00:18:48.840Z,4.90
2018-04-15T00:21:17.119Z,4.70
2018-04-15T00:23:47.143Z,5.17
2018-04-15T00:26:14.664Z,5.30
2018-04-15T00:28:42.177Z,5.17
2018-04-15T00:33:44.235Z,5.23
2018-04-15T00:36:11.773Z,4.60
2018-04-15T00:38:39.318Z,5.00
2018-04-15T00:41:06.837Z,5.27
2018-04-15T00:43:34.347Z,5.03
2018-04-15T00:46:01.856Z,5.40
2018-04-15T00:48:29.398Z,5.17
2018-04-15T00:50:56.905Z,5.20
2018-04-15T00:53:25.219Z,5.30
2018-04-15T00:55:52.768Z,4.80
2018-04-15T00:58:21.055Z,4.70
2018-04-15T01:00:49.331Z,5.00
2018-04-15T01:03:17.761Z,4.50
2018-04-15T01:05:45.322Z,4.70
2018-04-15T01:08:13.189Z,5.30
2018-04-15T01:10:40.721Z,4.90
2018-04-15T01:13:08.994Z,5.13
2018-04-15T01:15:37.268Z,5.20
2018-04-15T01:18:05.562Z,5.10
2018-04-15T01:20:33.862Z,4.80
2018-04-15T01:23:01.381Z,4.40
2018-04-15T01:25:29.686Z,4.53
2018-04-15T01:27:57.975Z,4.30
2018-04-15T01:30:25.490Z,4.50
2018-04-15T01:32:53.051Z,4.03
2018-04-15T01:35:20.559Z,4.70
2018-04-15T01:37:48.849Z,4.63
2018-04-15T01:40:16.388Z,4.23
2018-04-15T01:42:44.664Z,4.20
2018-04-15T01:45:13.682Z,4.30
2018-04-15T01:47:41.983Z,4.20
2018-04-15T01:50:09.514Z,4.40
2018-04-15T01:52:37.793Z,4.10
2018-04-15T01:55:05.350Z,4.23
2018-04-15T01:57:34.369Z,3.93
2018-04-15T02:00:02.649Z,4.23
2018-04-15T02:02:30.954Z,4.13
2018-04-15T02:04:58.535Z,4.00
2018-04-15T02:07:26.043Z,4.00
2018-04-15T02:09:54.358Z,4.00
2018-04-15T02:12:21.928Z,4.10
2018-04-15T02:14:49.437Z,4.40
2018-04-15T02:17:16.965Z,4.47
2018-04-15T02:19:44.480Z,4.20
2018-04-15T02:22:12.777Z,4.20
2018-04-15T02:24:41.079Z,4.37
2018-04-15T02:27:08.593Z,3.93
2018-04-15T02:29:36.196Z,4.20
2018-04-15T02:32:04.509Z,4.30
2018-04-15T02:34:32.029Z,4.17
2018-04-15T02:37:00.321Z,3.93
2018-04-15T02:39:28.605Z,3.90
2018-04-15T02:41:56.883Z,4.43
2018-04-15T02:44:25.174Z,4.40
2018-04-15T02:46:53.572Z,4.17
2018-04-15T02:49:21.090Z,4.30
2018-04-15T02:51:49.373Z,4.43
2018-04-15T02:54:17.683Z,4.77
2018-04-15T02:56:45.957Z,4.63
2018-04-15T02:59:14.231Z,4.60
2018-04-15T03:01:42.525Z,3.93
2018-04-15T03:04:10.929Z,4.00
2018-04-15T03:06:38.479Z,4.70
2018-04-15T03:09:06.014Z,4.33
2018-04-15T03:11:33.579Z,4.00
2018-04-15T03:14:01.117Z,3.97
2018-04-15T03:16:28.656Z,4.23
2018-04-15T03:18:56.161Z,4.23
2018-04-15T03:21:23.665Z,4.07
2018-04-15T03:23:51.199Z,4.30
2018-04-15T03:26:19.474Z,4.07
2018-04-15T03:28:46.988Z,4.03
2018-04-15T03:31:14.513Z,3.83
2018-04-15T03:33:42.023Z,3.70
2018-04-15T03:36:09.530Z,3.80
2018-04-15T03:38:37.077Z,3.67
2018-04-15T03:41:04.590Z,3.90
2018-04-15T03:43:32.866Z,3.73
2018-04-15T03:46:01.266Z,3.60
2018-04-15T03:48:28.768Z,3.33
2018-04-15T03:50:56.269Z,3.73
2018-04-15T03:53:24.575Z,3.60
2018-04-15T03:55:52.131Z,3.70
2018-04-15T03:58:20.402Z,3.70
2018-04-15T04:00:48.706Z,3.90
2018-04-15T04:03:16.265Z,3.80
2018-04-15T04:05:43.770Z,3.97
2018-04-15T04:08:11.297Z,3.67
2018-04-15T04:10:39.761Z,3.70
2018-04-15T04:13:08.077Z,3.80
2018-04-15T04:15:35.640Z,3.47
2018-04-15T04:18:15.059Z,3.60
2018-04-15T04:20:54.561Z,4.00
2018-04-15T04:23:33.986Z,3.80
2018-04-15T04:26:04.433Z,3.77
2018-04-15T04:28:32.710Z,3.83
2018-04-15T04:31:00.210Z,3.60
2018-04-15T04:33:27.741Z,3.50
2018-04-15T04:35:55.250Z,3.90
2018-04-15T04:38:22.773Z,3.90
2018-04-15T04:40:51.068Z,3.77
2018-04-15T04:43:18.585Z,3.50
2018-04-15T04:45:46.138Z,3.97
2018-04-15T04:48:13.657Z,3.60
2018-04-15T04:50:41.164Z,3.83
2018-04-15T04:53:08.681Z,4.07
2018-04-15T04:55:36.981Z,3.60
2018-04-15T04:58:04.518Z,3.60
2018-04-15T05:00:32.808Z,3.83
2018-04-15T05:03:01.104Z,3.83
2018-04-15T05:05:28.618Z,3.83
2018-04-15T05:07:56.145Z,3.70
2018-04-15T05:10:23.669Z,3.40
2018-04-15T05:12:51.940Z,3.50
2018-04-15T05:15:20.613Z,3.63
2018-04-15T05:17:48.913Z,3.60
2018-04-15T05:20:17.916Z,3.63
2018-04-15T05:22:45.429Z,3.30
2018-04-15T05:25:12.978Z,3.87
2018-04-15T05:27:40.480Z,3.27
2018-04-15T05:30:07.997Z,3.33
2018-04-15T05:32:35.514Z,3.63
2018-04-15T05:35:03.021Z,3.70
2018-04-15T05:37:30.594Z,3.40
2018-04-15T05:39:58.874Z,3.20
2018-04-15T05:42:26.385Z,3.13
2018-04-15T05:44:53.897Z,3.27
2018-04-15T05:47:21.433Z,3.50
2018-04-15T05:49:48.942Z,3.17
2018-04-15T05:52:16.452Z,3.50
2018-04-15T05:54:44.804Z,3.60
2018-04-15T05:57:12.308Z,3.60
2018-04-15T05:59:40.586Z,3.60
2018-04-15T06:02:09.623Z,3.47
2018-04-15T06:04:37.177Z,3.50
2018-04-15T06:07:04.695Z,3.77
2018-04-15T06:09:32.233Z,3.60
2018-04-15T06:11:59.790Z,3.70
2018-04-15T06:14:27.305Z,3.43
2018-04-15T06:16:55.695Z,3.07
2018-04-15T06:19:23.989Z,3.50
2018-04-15T06:21:52.311Z,3.40
2018-04-15T06:24:19.856Z,3.27
2018-04-15T06:26:47.361Z,3.37
2018-04-15T06:29:14.877Z,3.93
2018-04-15T06:31:42.405Z,3.27
2018-04-15T06:34:10.719Z,3.20
2018-04-15T06:36:38.303Z,3.77
2018-04-15T06:39:05.831Z,3.00
2018-04-15T06:41:34.138Z,3.50
2018-04-15T06:44:01.665Z,3.20
2018-04-15T06:46:29.230Z,3.50
2018-04-15T06:48:56.741Z,3.40
2018-04-15T06:51:24.269Z,3.20
2018-04-15T06:53:52.565Z,3.13
2018-04-15T06:56:20.842Z,3.37
2018-04-15T06:58:49.129Z,3.30
2018-04-15T07:01:16.653Z,3.23
2018-04-15T07:03:44.162Z,3.30
2018-04-15T07:06:11.835Z,3.40
2018-04-15T07:08:39.372Z,3.17
2018-04-15T07:11:07.654Z,3.13
2018-04-15T07:13:35.951Z,3.00
2018-04-15T07:16:03.798Z,3.23
2018-04-15T07:18:31.585Z,3.33
2018-04-15T07:21:00.021Z,3.07
2018-04-15T07:23:27.567Z,3.30
2018-04-15T07:25:55.086Z,3.33
2018-04-15T07:28:23.357Z,3.30
2018-04-15T07:30:51.674Z,3.20
2018-04-15T07:33:20.117Z,3.33
2018-04-15T07:35:48.112Z,3.73
2018-04-15T07:38:16.410Z,3.60
2018-04-15T07:40:43.970Z,3.37
2018-04-15T07:43:11.647Z,3.60
2018-04-15T07:45:39.401Z,3.20
2018-04-15T07:48:06.939Z,3.63
2018-04-15T07:50:34.509Z,3.57
2018-04-15T07:53:03.598Z,3.20
2018-04-15T07:55:31.140Z,3.50
2018-04-15T07:57:58.678Z,3.30
2018-04-15T08:00:26.207Z,3.20
2018-04-15T08:02:53.855Z,3.40
2018-04-15T08:05:22.248Z,3.43
2018-04-15T08:07:49.794Z,3.30
2018-04-15T08:10:17.315Z,3.10
2018-04-15T08:12:45.337Z,2.97
2018-04-15T08:15:12.924Z,3.30
2018-04-15T08:17:40.442Z,3.10
2018-04-15T08:20:08.246Z,3.30
2018-04-15T08:22:35.777Z,3.07
2018-04-15T08:25:03.289Z,3.23
2018-04-15T08:27:31.606Z,3.27
2018-04-15T08:29:59.233Z,3.30
2018-04-15T08:32:26.755Z,3.30
2018-04-15T08:34:54.264Z,3.43
2018-04-15T08:37:22.557Z,2.90
2018-04-15T08:39:50.905Z,3.10
2018-04-15T08:42:18.436Z,3.07
2018-04-15T08:44:45.993Z,3.00
2018-04-15T08:47:13.513Z,3.47
2018-04-15T08:49:43.305Z,3.50
2018-04-15T08:52:10.839Z,3.80
2018-04-15T08:54:38.377Z,3.40
2018-04-15T08:57:06.653Z,3.33
2018-04-15T08:59:34.956Z,3.37
2018-04-15T09:02:02.478Z,3.03
2018-04-15T09:04:30.806Z,3.30
2018-04-15T09:06:58.342Z,3.20
2018-04-15T09:09:26.684Z,3.62
2018-04-15T09:11:54.215Z,3.30
2018-04-15T09:14:21.769Z,2.70
2018-04-15T09:16:50.045Z,3.00
2018-04-15T09:19:18.330Z,2.80
2018-04-15T09:21:46.010Z,2.80
2018-04-15T09:24:13.517Z,2.72
2018-04-15T09:26:41.035Z,2.60
2018-04-15T09:29:08.581Z,2.60
2018-04-15T09:31:36.871Z,2.47
2018-04-15T09:34:04.392Z,3.08
2018-04-15T09:36:31.932Z,2.80
2018-04-15T09:38:59.472Z,2.70
2018-04-15T09:41:27.001Z,2.75
2018-04-15T09:43:54.520Z,2.72
2018-04-15T09:46:22.035Z,3.05
2018-04-15T09:48:50.323Z,2.62
2018-04-15T09:51:18.649Z,2.83
2018-04-15T09:53:46.175Z,3.12
2018-04-15T09:56:13.681Z,3.17
2018-04-15T09:58:41.224Z,3.30
2018-04-15T10:01:08.745Z,3.60
2018-04-15T10:03:37.025Z,3.40
2018-04-15T10:06:04.576Z,3.05
2018-04-15T10:08:32.098Z,3.05
2018-04-15T10:10:59.616Z,3.22
2018-04-15T10:13:27.253Z,3.00
2018-04-15T10:15:54.769Z,3.28
2018-04-15T10:18:24.056Z,2.80
2018-04-15T10:20:52.381Z,2.70
2018-04-15T10:23:19.981Z,2.53
2018-04-15T10:25:47.499Z,3.15
2018-04-15T10:28:15.039Z,2.62
2018-04-15T10:30:43.353Z,2.90
2018-04-15T10:33:10.857Z,3.55
2018-04-15T10:35:39.203Z,2.80
2018-04-15T10:38:06.726Z,2.95
2018-04-15T10:40:35.006Z,3.30
2018-04-15T10:43:03.313Z,2.70
2018-04-15T10:45:30.848Z,3.05
2018-04-15T10:47:59.149Z,2.97
2018-04-15T10:50:27.444Z,2.90
2018-04-15T10:52:54.965Z,3.08
2018-04-15T10:55:23.241Z,3.20
2018-04-15T10:57:50.783Z,2.95
2018-04-15T11:00:18.290Z,3.70
2018-04-15T11:02:46.585Z,4.30
2018-04-15T11:05:14.879Z,2.80
2018-04-15T11:07:42.402Z,2.92
2018-04-15T11:10:10.706Z,2.45
2018-04-15T11:12:39.007Z,2.75
2018-04-15T11:15:06.509Z,2.40
2018-04-15T11:17:34.034Z,2.40
2018-04-15T11:20:01.591Z,2.97
2018-04-15T11:22:29.865Z,2.80
2018-04-15T11:24:58.174Z,2.80
2018-04-15T11:27:25.718Z,3.10
2018-04-15T11:29:54.005Z,2.53
2018-04-15T11:32:21.524Z,2.65
2018-04-15T11:34:49.834Z,2.70
2018-04-15T11:37:18.117Z,3.08
2018-04-15T11:39:46.417Z,3.05
2018-04-15T11:42:13.953Z,2.90
2018-04-15T11:44:42.229Z,3.40
2018-04-15T11:49:45.580Z,2.58
2018-04-15T11:52:13.090Z,2.70
2018-04-15T11:54:41.461Z,2.80
2018-04-15T11:57:09.029Z,3.00
2018-04-15T11:59:36.560Z,2.60
2018-04-15T12:02:04.077Z,2.47
2018-04-15T12:04:33.287Z,3.05
2018-04-15T12:07:00.800Z,3.70
2018-04-15T12:09:28.323Z,3.60
2018-04-15T12:11:56.617Z,3.55
2018-04-15T12:14:24.902Z,2.87
2018-04-15T12:16:52.465Z,3.60
2018-04-15T12:19:20.785Z,3.45
2018-04-15T12:21:48.285Z,3.40
2018-04-15T12:24:15.804Z,3.70
2018-04-15T12:26:43.500Z,3.60
2018-04-15T12:29:12.558Z,3.53
2018-04-15T12:31:40.126Z,3.83
2018-04-15T12:34:07.681Z,3.80
2018-04-15T12:36:35.224Z,4.18
2018-04-15T12:39:03.522Z,4.60
2018-04-15T12:41:31.821Z,4.00
2018-04-15T12:43:59.354Z,3.72
2018-04-15T12:46:27.649Z,3.65
2018-04-15T12:48:55.177Z,3.40
2018-04-15T12:51:23.492Z,3.78
2018-04-15T12:53:51.765Z,3.80
2018-04-15T12:56:20.070Z,4.07
2018-04-15T12:58:47.592Z,4.57
2018-04-15T13:01:15.151Z,4.72
2018-04-15T13:03:42.681Z,4.30
2018-04-15T13:06:10.220Z,5.18
2018-04-15T13:08:37.735Z,4.55
2018-04-15T13:11:06.184Z,4.18
2018-04-15T13:13:33.733Z,4.03
2018-04-15T13:16:01.239Z,4.30
2018-04-15T13:18:28.787Z,4.12
2018-04-15T13:20:56.291Z,4.10
2018-04-15T13:23:24.593Z,4.05
2018-04-15T13:25:52.915Z,3.65
2018-04-15T13:28:20.620Z,3.30
2018-04-15T13:30:49.671Z,4.03
2018-04-15T13:33:17.193Z,3.60
2018-04-15T13:35:44.705Z,4.10
2018-04-15T13:38:12.209Z,3.85
2018-04-15T13:40:40.514Z,4.85
2018-04-15T13:43:08.790Z,4.05
2018-04-15T13:45:37.101Z,3.75
2018-04-15T13:48:04.674Z,4.20
2018-04-15T13:50:32.231Z,4.50
2018-04-15T13:52:59.758Z,4.00
2018-04-15T13:55:28.090Z,4.60
2018-04-15T13:57:55.663Z,9.93
2018-04-15T14:00:23.192Z,7.37
2018-04-15T14:02:50.723Z,5.32
2018-04-15T14:05:19.140Z,4.78
2018-04-15T14:07:46.684Z,4.55
2018-04-15T14:10:14.976Z,4.70
2018-04-15T14:12:43.258Z,4.80
2018-04-15T14:15:11.534Z,4.32
2018-04-15T14:17:39.845Z,4.15
2018-04-15T14:20:07.380Z,4.00
2018-04-15T14:22:35.656Z,4.00
2018-04-15T14:25:03.282Z,4.40
2018-04-15T14:27:30.793Z,4.82
2018-04-15T14:29:59.972Z,4.50
2018-04-15T14:32:27.533Z,5.22
2018-04-15T14:34:55.038Z,5.87
2018-04-15T14:37:22.546Z,5.22
2018-04-15T14:39:50.075Z,4.45
2018-04-15T14:42:17.615Z,4.68
2018-04-15T14:44:45.908Z,13.48
2018-04-15T14:47:13.462Z,4.97
2018-04-15T14:49:41.745Z,4.25
2018-04-15T14:52:10.021Z,4.95
2018-04-15T14:54:38.326Z,4.95
2018-04-15T14:57:05.833Z,4.70
2018-04-15T14:59:33.338Z,4.30
2018-04-15T15:02:01.762Z,5.07
2018-04-15T15:04:29.278Z,4.85
2018-04-15T15:06:57.556Z,4.65
2018-04-15T15:09:25.903Z,4.75
2018-04-15T15:11:53.437Z,4.72
2018-04-15T15:14:21.837Z,5.12
2018-04-15T15:16:49.437Z,5.00
2018-04-15T15:19:18.498Z,5.07
2018-04-15T15:21:46.017Z,5.28
2018-04-15T15:24:14.323Z,6.85
2018-04-15T15:26:41.886Z,7.97
2018-04-15T15:29:09.484Z,5.80
2018-04-15T15:31:38.228Z,5.62
2018-04-15T15:34:05.857Z,5.82
2018-04-15T15:36:33.371Z,5.15
2018-04-15T15:39:00.924Z,4.95
2018-04-15T15:41:29.221Z,5.10
2018-04-15T15:43:56.744Z,5.00
2018-04-15T15:46:25.070Z,5.25
2018-04-15T15:48:52.591Z,5.70
2018-04-15T15:51:20.888Z,6.25
2018-04-15T15:53:49.227Z,6.18
2018-04-15T15:56:16.773Z,5.90
2018-04-15T15:58:44.279Z,6.18
2018-04-15T16:01:12.590Z,6.07
2018-04-15T16:03:40.869Z,6.55
2018-04-15T16:06:09.148Z,5.65
2018-04-15T16:08:37.455Z,6.07
2018-04-15T16:11:04.965Z,6.15
2018-04-15T16:13:32.480Z,6.28
2018-04-15T16:16:00.018Z,6.00
2018-04-15T16:18:28.303Z,5.20
2018-04-15T16:20:56.580Z,5.72
2018-04-15T16:23:24.901Z,6.57
2018-04-15T16:25:52.413Z,6.55
2018-04-15T16:28:20.130Z,6.90
2018-04-15T16:30:47.674Z,6.53
2018-04-15T16:33:15.397Z,7.70
2018-04-15T16:35:43.010Z,6.82
2018-04-15T16:38:10.557Z,6.72
2018-04-15T16:40:38.832Z,7.00
2018-04-15T16:43:07.101Z,6.97
2018-04-15T16:45:35.401Z,6.87
2018-04-15T16:48:03.686Z,6.78
2018-04-15T16:50:31.988Z,7.40
2018-04-15T16:52:59.574Z,7.40
2018-04-15T16:55:27.117Z,7.55
2018-04-15T16:57:54.616Z,7.03
2018-04-15T17:00:22.158Z,7.32
2018-04-15T17:02:49.770Z,7.22
2018-04-15T17:05:18.046Z,7.40
2018-04-15T17:07:46.353Z,7.35
2018-04-15T17:10:14.624Z,7.60
2018-04-15T17:12:42.897Z,7.22
2018-04-15T17:15:11.954Z,7.70
2018-04-15T17:17:39.477Z,7.22
2018-04-15T17:20:07.770Z,7.35
2018-04-15T17:22:35.392Z,8.38
2018-04-15T17:25:02.838Z,8.70
2018-04-15T17:27:30.341Z,7.07
2018-04-15T17:29:58.756Z,8.05
2018-04-15T17:32:26.294Z,7.40
2018-04-15T17:34:55.632Z,7.57
2018-04-15T17:37:23.169Z,7.07
2018-04-15T17:39:51.446Z,7.28
2018-04-15T17:42:19.927Z,7.15
2018-04-15T17:44:48.231Z,9.23
2018-04-15T17:47:15.748Z,7.60
2018-04-15T17:49:43.272Z,9.02
2018-04-15T17:52:10.814Z,11.70
2018-04-15T17:54:39.126Z,13.63
2018-04-15T17:57:06.637Z,12.50
2018-04-15T17:59:35.952Z,8.95
2018-04-15T18:02:04.265Z,9.27
2018-04-15T18:04:31.781Z,11.38
2018-04-15T18:07:00.105Z,10.88
2018-04-15T18:09:27.637Z,11.02
2018-04-15T18:11:55.985Z,10.80
2018-04-15T18:14:23.517Z,10.73
2018-04-15T18:16:51.035Z,10.27
2018-04-15T18:19:18.569Z,8.38
2018-04-15T18:21:46.209Z,10.23
2018-04-15T18:24:13.706Z,8.18
2018-04-15T18:26:41.213Z,7.60
2018-04-15T18:29:08.794Z,7.50
2018-04-15T18:31:36.319Z,7.83
2018-04-15T18:34:03.945Z,9.50
2018-04-15T18:36:31.607Z,12.43
2018-04-15T18:38:59.126Z,6.67
2018-04-15T18:41:27.428Z,7.00
2018-04-15T18:43:55.732Z,6.20
2018-04-15T18:46:23.245Z,9.93
2018-04-15T18:48:51.583Z,8.00
2018-04-15T18:51:19.123Z,8.83
2018-04-15T18:53:47.397Z,7.30
2018-04-15T18:56:15.675Z,5.97
2018-04-15T18:58:43.968Z,5.67
2018-04-15T19:01:12.257Z,5.77
2018-04-15T19:03:39.773Z,5.57
2018-04-15T19:06:07.347Z,7.27
2018-04-15T19:08:34.859Z,5.80
2018-04-15T19:11:02.854Z,4.70
2018-04-15T19:13:30.384Z,5.77
2018-04-15T19:15:57.976Z,4.90
2018-04-15T19:18:25.484Z,5.30
2018-04-15T19:20:53.196Z,4.40
2018-04-15T19:23:20.759Z,4.40
2018-04-15T19:25:48.285Z,4.10
2018-04-15T19:28:16.593Z,4.10
2018-04-15T19:30:44.116Z,4.10
2018-04-15T19:33:13.138Z,4.80
2018-04-15T19:35:41.437Z,4.70
2018-04-15T19:38:09.792Z,5.20
2018-04-15T19:40:37.337Z,5.00
2018-04-15T19:43:04.867Z,5.23
2018-04-15T19:45:32.411Z,4.80
2018-04-15T19:47:59.931Z,4.57
2018-04-15T19:50:27.462Z,4.20
2018-04-15T19:52:54.990Z,3.93
2018-04-15T19:55:23.273Z,3.70
2018-04-15T19:57:51.583Z,3.70
2018-04-15T20:00:19.119Z,4.00
2018-04-15T20:02:47.454Z,3.77
2018-04-15T20:05:14.981Z,3.70
2018-04-15T20:07:42.769Z,3.80
2018-04-15T20:10:10.291Z,4.17
2018-04-15T20:12:38.605Z,3.33
2018-04-15T20:17:34.878Z,3.80
2018-04-15T20:20:02.437Z,3.30
2018-04-15T20:22:29.954Z,3.50
2018-04-15T20:24:58.253Z,3.13
2018-04-15T20:27:26.579Z,2.87
2018-04-15T20:29:54.083Z,3.13
2018-04-15T20:32:21.623Z,2.90
2018-04-15T20:34:49.162Z,3.53
2018-04-15T20:37:16.711Z,3.40
2018-04-15T20:39:44.428Z,2.70
2018-04-15T20:42:13.482Z,3.37
2018-04-15T20:44:41.029Z,3.10
2018-04-15T20:47:08.693Z,3.37
2018-04-15T20:49:36.501Z,3.53
2018-04-15T20:52:04.176Z,3.33
2018-04-15T20:54:32.545Z,3.20
2018-04-15T20:57:00.504Z,3.80
2018-04-15T20:59:29.906Z,3.30
2018-04-15T21:01:57.461Z,3.63
2018-04-15T21:04:25.026Z,3.67
2018-04-15T21:06:52.544Z,4.20
2018-04-15T21:09:20.066Z,3.90
2018-04-15T21:11:47.601Z,4.10
2018-04-15T21:14:15.875Z,3.80
2018-04-15T21:16:43.492Z,4.10
2018-04-15T21:19:11.026Z,4.30
2018-04-15T21:21:39.296Z,4.30
2018-04-15T21:24:07.605Z,4.53
2018-04-15T21:26:35.133Z,4.20
2018-04-15T21:29:02.644Z,3.87
2018-04-15T21:31:30.203Z,3.90
2018-04-15T21:33:57.766Z,3.90
2018-04-15T21:36:25.273Z,4.80
2018-04-15T21:38:52.784Z,4.30
2018-04-15T21:41:20.353Z,4.80
2018-04-15T21:43:47.865Z,4.47
2018-04-15T21:46:16.142Z,4.70
2018-04-15T21:48:43.673Z,4.50
2018-04-15T21:51:11.202Z,4.40
2018-04-15T21:53:39.491Z,4.50
2018-04-15T21:56:07.037Z,4.83
2018-04-15T21:58:35.308Z,4.47
2018-04-15T22:01:02.873Z,3.90
2018-04-15T22:03:31.179Z,4.30
2018-04-15T22:05:59.457Z,4.50
2018-04-15T22:08:27.735Z,4.83
2018-04-15T22:10:56.067Z,5.00
2018-04-15T22:13:23.569Z,4.70
2018-04-15T22:15:52.163Z,4.33
2018-04-15T22:18:19.698Z,4.30
2018-04-15T22:20:47.269Z,4.17
2018-04-15T22:23:14.787Z,3.70
2018-04-15T22:25:42.309Z,3.90
2018-04-15T22:28:09.910Z,3.77
2018-04-15T22:30:37.425Z,4.20
2018-04-15T22:33:04.989Z,3.83
2018-04-15T22:35:32.517Z,4.50
2018-04-15T22:38:00.042Z,4.50
2018-04-15T22:40:28.325Z,4.80
2018-04-15T22:42:56.685Z,4.50
2018-04-15T22:45:24.189Z,4.30
2018-04-15T22:47:57.472Z,4.53
2018-04-15T22:50:31.584Z,4.60
2018-04-15T22:52:59.871Z,4.03
2018-04-15T22:55:28.175Z,4.63
2018-04-15T22:57:55.694Z,4.87
2018-04-15T23:00:23.221Z,4.50
2018-04-15T23:02:50.749Z,4.73
2018-04-15T23:05:19.026Z,4.93
2018-04-15T23:07:47.335Z,5.00
2018-04-15T23:10:14.861Z,4.87
2018-04-15T23:12:43.143Z,4.90
2018-04-15T23:15:11.455Z,5.00
2018-04-15T23:17:38.965Z,5.30
2018-04-15T23:20:07.993Z,5.07
2018-04-15T23:22:36.313Z,4.50
2018-04-15T23:25:03.837Z,4.80
2018-04-15T23:27:33.167Z,4.53
2018-04-15T23:30:00.700Z,4.87
2018-04-15T23:32:29.071Z,4.80
2018-04-15T23:34:58.125Z,4.87
2018-04-15T23:37:25.657Z,4.93
2018-04-15T23:39:53.933Z,5.03
2018-04-15T23:42:22.212Z,4.80
2018-04-15T23:44:49.942Z,4.67
2018-04-15T23:47:17.458Z,4.67
2018-04-15T23:49:44.966Z,4.53
2018-04-15T23:52:12.507Z,4.70
2018-04-15T23:54:40.027Z,5.10
2018-04-15T23:57:08.313Z,4.50
2018-04-15T23:59:36.639Z,5.10
